createdAt,value
2022-10-24T00:02:22.291Z,40.67
2022-10-24T00:04:50.973Z,39.83
2022-10-24T00:07:19.544Z,43.93
2022-10-24T00:09:48.175Z,43.20
2022-10-24T00:12:18.689Z,39.00
2022-10-24T00:14:50.449Z,37.00
2022-10-24T00:17:19.644Z,34.67
2022-10-24T00:19:47.952Z,32.77
2022-10-24T00:22:16.694Z,32.10
2022-10-24T00:24:45.053Z,31.33
2022-10-24T00:27:45.424Z,30.10
2022-10-24T00:30:16.432Z,30.27
2022-10-24T00:32:46.076Z,33.37
2022-10-24T00:35:16.633Z,36.07
2022-10-24T00:37:45.190Z,39.63
2022-10-24T00:40:17.266Z,38.33
2022-10-24T00:42:45.883Z,34.23
2022-10-24T00:45:40.687Z,31.90
2022-10-24T00:48:16.024Z,31.13
2022-10-24T00:50:46.709Z,31.20
2022-10-24T00:53:17.276Z,29.03
2022-10-24T00:56:17.279Z,29.23
2022-10-24T00:58:49.950Z,29.23
2022-10-24T01:01:21.032Z,28.70
2022-10-24T01:03:53.153Z,27.37
2022-10-24T01:06:38.896Z,29.60
2022-10-24T01:09:19.142Z,28.67
2022-10-24T01:12:02.030Z,27.90
2022-10-24T01:14:42.472Z,28.53
2022-10-24T01:17:17.895Z,29.60
2022-10-24T01:20:15.686Z,29.27
2022-10-24T01:22:57.301Z,28.80
2022-10-24T01:25:43.377Z,29.30
2022-10-24T01:28:15.767Z,28.53
2022-10-24T01:30:50.446Z,28.47
2022-10-24T01:33:28.717Z,29.33
2022-10-24T01:36:04.658Z,27.40
2022-10-24T01:38:37.711Z,28.60
2022-10-24T01:41:09.282Z,28.27
2022-10-24T01:43:44.140Z,28.07
2022-10-24T01:46:18.082Z,26.80
2022-10-24T01:48:51.564Z,27.00
2022-10-24T01:51:24.115Z,26.90
2022-10-24T01:53:53.684Z,26.23
2022-10-24T01:56:22.662Z,24.73
2022-10-24T01:58:52.779Z,26.13
2022-10-24T02:01:26.529Z,24.43
2022-10-24T02:03:58.705Z,25.27
2022-10-24T02:06:33.478Z,24.57
2022-10-24T02:09:06.823Z,25.33
2022-10-24T02:11:36.721Z,25.17
2022-10-24T02:14:10.179Z,26.03
2022-10-24T02:16:40.311Z,24.53
2022-10-24T02:19:10.733Z,24.63
2022-10-24T02:21:48.871Z,24.43
2022-10-24T02:24:24.985Z,25.00
2022-10-24T02:26:58.515Z,24.10
2022-10-24T02:29:35.014Z,25.60
2022-10-24T02:32:10.715Z,24.27
2022-10-24T02:34:41.359Z,25.10
2022-10-24T02:37:12.686Z,23.37
2022-10-24T02:39:42.625Z,24.00
2022-10-24T02:42:13.950Z,23.50
2022-10-24T02:44:43.726Z,23.53
2022-10-24T02:47:15.462Z,23.70
2022-10-24T02:49:44.716Z,23.97
2022-10-24T02:52:16.568Z,23.77
2022-10-24T02:54:45.739Z,24.50
2022-10-24T02:57:15.203Z,24.10
2022-10-24T02:59:44.736Z,24.13
2022-10-24T03:02:14.746Z,23.27
2022-10-24T03:04:43.121Z,23.37
2022-10-24T03:07:11.754Z,23.90
2022-10-24T03:09:40.707Z,22.77
2022-10-24T03:12:16.519Z,22.20
2022-10-24T03:14:45.729Z,22.00
2022-10-24T03:17:16.538Z,21.57
2022-10-24T03:19:45.749Z,22.47
2022-10-24T03:22:14.532Z,22.73
2022-10-24T03:24:44.577Z,21.93
2022-10-24T03:27:23.795Z,22.50
2022-10-24T03:29:55.734Z,20.77
2022-10-24T03:32:29.592Z,21.13
2022-10-24T03:34:58.257Z,21.70
2022-10-24T03:37:27.806Z,20.60
2022-10-24T03:39:56.278Z,20.57
2022-10-24T03:42:25.568Z,21.10
2022-10-24T03:44:57.627Z,21.00
2022-10-24T03:47:28.542Z,21.13
2022-10-24T03:49:56.960Z,20.10
2022-10-24T03:52:25.365Z,21.30
2022-10-24T03:54:54.829Z,21.10
2022-10-24T03:57:25.634Z,21.00
2022-10-24T03:59:54.726Z,21.03
2022-10-24T04:02:23.345Z,21.67
2022-10-24T04:04:57.001Z,21.73
2022-10-24T04:07:26.776Z,20.60
2022-10-24T04:09:55.665Z,21.47
2022-10-24T04:12:27.654Z,22.63
2022-10-24T04:14:56.674Z,22.60
2022-10-24T04:17:29.776Z,22.43
2022-10-24T04:19:59.687Z,22.83
2022-10-24T04:22:29.044Z,22.43
2022-10-24T04:24:57.515Z,22.97
2022-10-24T04:27:29.439Z,22.97
2022-10-24T04:29:58.022Z,23.10
2022-10-24T04:32:27.589Z,23.50
2022-10-24T04:34:57.756Z,23.20
2022-10-24T04:37:27.469Z,22.10
2022-10-24T04:39:58.780Z,24.23
2022-10-24T04:42:28.583Z,23.53
2022-10-24T04:44:57.792Z,22.90
2022-10-24T04:47:26.557Z,22.90
2022-10-24T04:49:55.142Z,25.17
2022-10-24T04:52:26.933Z,24.77
2022-10-24T04:54:57.742Z,24.30
2022-10-24T04:57:26.121Z,24.63
2022-10-24T04:59:55.822Z,24.43
2022-10-24T05:02:24.659Z,23.13
2022-10-24T05:04:53.551Z,24.23
2022-10-24T05:07:22.666Z,23.17
2022-10-24T05:09:51.765Z,23.70
2022-10-24T05:12:21.855Z,24.00
2022-10-24T05:14:50.785Z,25.27
2022-10-24T05:17:22.421Z,22.63
2022-10-24T05:19:51.373Z,23.33
2022-10-24T05:22:19.730Z,22.70
2022-10-24T05:24:49.605Z,22.83
2022-10-24T05:27:24.394Z,22.90
2022-10-24T05:29:58.864Z,23.90
2022-10-24T05:32:27.765Z,23.70
2022-10-24T05:34:59.621Z,23.67
2022-10-24T05:40:00.839Z,23.63
2022-10-24T05:42:32.816Z,24.00
2022-10-24T05:45:02.809Z,23.20
2022-10-24T05:47:34.859Z,28.03
2022-10-24T05:50:03.830Z,24.83
2022-10-24T05:52:32.223Z,23.13
2022-10-24T05:55:08.457Z,23.10
2022-10-24T05:57:37.812Z,22.67
2022-10-24T06:00:14.442Z,22.73
2022-10-24T06:02:44.256Z,22.53
2022-10-24T06:05:13.249Z,23.37
2022-10-24T06:07:43.016Z,22.43
2022-10-24T06:10:12.643Z,21.87
2022-10-24T06:12:43.789Z,22.80
2022-10-24T06:15:18.537Z,22.47
2022-10-24T06:17:46.800Z,21.97
2022-10-24T06:20:15.137Z,22.60
2022-10-24T06:22:46.522Z,22.47
2022-10-24T06:25:15.608Z,22.77
2022-10-24T06:27:46.576Z,22.53
2022-10-24T06:30:16.200Z,21.37
2022-10-24T06:32:44.889Z,23.10
2022-10-24T06:35:14.804Z,22.07
2022-10-24T06:37:47.253Z,22.03
2022-10-24T06:40:16.712Z,21.97
2022-10-24T06:42:48.103Z,21.57
2022-10-24T06:45:18.446Z,23.40
2022-10-24T06:47:51.857Z,21.97
2022-10-24T06:50:22.623Z,23.13
2022-10-24T06:52:51.555Z,22.57
2022-10-24T06:55:20.061Z,22.70
2022-10-24T06:57:48.287Z,22.37
2022-10-24T07:00:18.722Z,22.63
2022-10-24T07:02:47.190Z,22.13
2022-10-24T07:05:18.541Z,23.27
2022-10-24T07:07:47.057Z,22.13
2022-10-24T07:10:19.831Z,22.40
2022-10-24T07:12:48.180Z,22.37
2022-10-24T07:15:18.990Z,25.73
2022-10-24T07:17:47.338Z,24.77
2022-10-24T07:20:16.990Z,24.10
2022-10-24T07:22:46.826Z,24.43
2022-10-24T07:25:15.326Z,21.93
2022-10-24T07:27:43.577Z,22.60
2022-10-24T07:30:19.031Z,22.67
2022-10-24T07:32:47.519Z,24.00
2022-10-24T07:35:16.740Z,26.17
2022-10-24T07:37:48.913Z,26.47
2022-10-24T07:40:17.770Z,33.00
2022-10-24T07:42:48.519Z,26.70
2022-10-24T07:45:18.073Z,24.77
2022-10-24T07:47:49.010Z,23.83
2022-10-24T07:50:17.877Z,24.90
2022-10-24T07:52:46.024Z,24.00
2022-10-24T07:55:16.661Z,22.13
2022-10-24T07:57:46.067Z,22.10
2022-10-24T08:00:18.116Z,22.20
2022-10-24T08:05:46.716Z,20.03
2022-10-24T08:11:09.340Z,21.20
2022-10-24T08:13:37.739Z,21.40
2022-10-24T08:16:07.327Z,20.73
2022-10-24T08:18:41.194Z,20.50
2022-10-24T08:21:11.988Z,22.63
2022-10-24T08:23:46.332Z,22.77
2022-10-24T08:26:17.734Z,21.43
2022-10-24T08:28:47.567Z,21.40
2022-10-24T08:31:18.756Z,21.07
2022-10-24T08:33:49.753Z,21.03
2022-10-24T08:36:23.165Z,20.97
2022-10-24T08:38:51.807Z,21.03
2022-10-24T08:41:29.596Z,20.80
2022-10-24T08:44:00.161Z,20.87
2022-10-24T08:46:44.335Z,20.43
2022-10-24T08:49:21.835Z,21.23
2022-10-24T08:51:56.398Z,20.53
2022-10-24T08:54:27.973Z,20.97
2022-10-24T08:56:58.060Z,21.03
2022-10-24T08:59:28.777Z,19.90
2022-10-24T09:02:04.174Z,20.43
2022-10-24T09:04:42.657Z,20.37
2022-10-24T09:07:18.983Z,20.03
2022-10-24T09:09:51.151Z,20.00
2022-10-24T09:12:21.759Z,18.80
2022-10-24T09:14:59.837Z,20.07
2022-10-24T09:17:32.616Z,19.70
2022-10-24T09:20:08.794Z,41.37
2022-10-24T09:22:43.494Z,25.00
2022-10-24T09:25:22.734Z,20.67
2022-10-24T09:27:52.944Z,20.53
2022-10-24T09:30:33.170Z,20.47
2022-10-24T09:33:12.802Z,21.37
2022-10-24T09:35:44.542Z,26.33
2022-10-24T09:38:27.989Z,25.00
2022-10-24T09:40:58.764Z,20.57
2022-10-24T09:43:34.543Z,18.37
2022-10-24T09:46:04.787Z,19.77
2022-10-24T09:48:42.611Z,18.83
2022-10-24T09:51:21.804Z,18.60
2022-10-24T09:54:03.182Z,18.20
2022-10-24T09:56:37.364Z,18.87
2022-10-24T09:59:34.811Z,17.10
2022-10-24T10:02:25.385Z,16.30
2022-10-24T10:05:20.036Z,15.93
2022-10-24T10:07:54.728Z,15.50
2022-10-24T10:10:30.516Z,16.20
2022-10-24T10:13:19.431Z,15.20
2022-10-24T10:15:50.717Z,15.03
2022-10-24T10:18:33.635Z,15.10
2022-10-24T10:21:09.775Z,15.00
2022-10-24T10:23:42.807Z,14.97
2022-10-24T10:26:20.802Z,13.83
2022-10-24T10:29:02.650Z,15.27
2022-10-24T10:31:39.628Z,14.03
2022-10-24T10:34:30.307Z,14.27
2022-10-24T10:37:17.021Z,14.10
2022-10-24T10:40:16.791Z,14.63
2022-10-24T10:42:58.832Z,20.67
2022-10-24T10:45:36.820Z,14.83
2022-10-24T10:48:21.613Z,13.77
2022-10-24T10:50:58.538Z,13.37
2022-10-24T10:53:37.031Z,14.10
2022-10-24T10:56:17.571Z,13.33
2022-10-24T10:58:58.173Z,13.60
2022-10-24T11:01:33.881Z,13.53
2022-10-24T11:04:15.137Z,13.17
2022-10-24T11:06:49.836Z,12.87
2022-10-24T11:09:32.658Z,13.30
2022-10-24T11:12:08.416Z,13.00
2022-10-24T11:14:40.821Z,12.87
2022-10-24T11:17:16.681Z,13.60
2022-10-24T11:20:01.036Z,13.67
2022-10-24T11:22:36.673Z,12.67
2022-10-24T11:25:21.034Z,13.50
2022-10-24T11:27:56.667Z,12.43
2022-10-24T11:30:42.301Z,13.03
2022-10-24T11:33:19.845Z,12.03
2022-10-24T11:36:11.695Z,13.32
2022-10-24T11:38:50.953Z,13.87
2022-10-24T11:41:40.278Z,12.50
2022-10-24T11:44:36.174Z,12.65
2022-10-24T11:47:16.849Z,12.70
2022-10-24T11:49:50.112Z,12.00
2022-10-24T11:52:24.706Z,11.73
2022-10-24T11:54:58.098Z,11.90
2022-10-24T11:57:30.677Z,12.27
2022-10-24T12:00:00.652Z,12.25
2022-10-24T12:03:10.931Z,11.75
2022-10-24T12:06:18.860Z,11.30
2022-10-24T12:09:14.707Z,11.45
2022-10-24T12:12:07.938Z,10.07
2022-10-24T12:14:52.708Z,10.13
2022-10-24T12:17:42.278Z,9.93
2022-10-24T12:20:16.681Z,9.68
2022-10-24T12:22:50.590Z,9.40
2022-10-24T12:25:23.680Z,9.07
2022-10-24T12:27:58.913Z,8.60
2022-10-24T12:30:29.801Z,8.68
2022-10-24T12:33:13.268Z,7.80
2022-10-24T12:35:56.835Z,8.65
2022-10-24T12:39:07.889Z,9.00
2022-10-24T12:41:46.721Z,8.00
2022-10-24T12:44:51.932Z,8.07
2022-10-24T12:47:38.761Z,6.90
2022-10-24T12:50:44.973Z,6.75
2022-10-24T12:53:38.644Z,6.57
2022-10-24T12:56:22.004Z,7.18
2022-10-24T12:59:04.700Z,6.60
2022-10-24T13:01:38.249Z,6.57
2022-10-24T13:04:40.040Z,6.60
2022-10-24T13:07:56.317Z,7.03
2022-10-24T13:10:48.832Z,6.30
2022-10-24T13:13:48.906Z,6.35
2022-10-24T13:16:32.751Z,6.95
2022-10-24T13:19:18.655Z,5.93
2022-10-24T13:21:49.412Z,6.05
2022-10-24T13:24:34.056Z,6.32
2022-10-24T13:27:32.940Z,6.00
2022-10-24T13:30:26.903Z,6.13
2022-10-24T13:33:27.781Z,5.80
2022-10-24T13:35:57.908Z,5.50
2022-10-24T13:38:27.901Z,5.57
2022-10-24T13:40:56.902Z,6.30
2022-10-24T13:43:30.749Z,5.57
2022-10-24T13:46:02.575Z,6.03
2022-10-24T13:48:38.544Z,6.70
2022-10-24T13:51:13.978Z,6.00
2022-10-24T13:53:47.783Z,5.57
2022-10-24T13:56:17.959Z,6.18
2022-10-24T13:59:11.370Z,6.03
2022-10-24T14:04:36.216Z,6.65
2022-10-24T14:07:10.819Z,6.30
2022-10-24T14:09:43.836Z,6.90
2022-10-24T14:12:20.992Z,6.55
2022-10-24T14:15:00.923Z,6.60
2022-10-24T14:17:33.754Z,6.95
2022-10-24T14:20:04.974Z,6.35
2022-10-24T14:22:39.824Z,7.25
2022-10-24T14:25:24.237Z,6.85
2022-10-24T14:27:53.943Z,6.78
2022-10-24T14:30:25.261Z,6.80
2022-10-24T14:33:22.524Z,6.90
2022-10-24T14:35:54.991Z,6.38
2022-10-24T14:38:30.475Z,7.13
2022-10-24T14:41:09.177Z,7.32
2022-10-24T14:43:43.001Z,7.13
2022-10-24T14:46:34.840Z,6.93
2022-10-24T14:49:29.323Z,7.22
2022-10-24T14:52:00.907Z,7.35
2022-10-24T14:54:37.307Z,7.25
2022-10-24T14:57:10.349Z,6.80
2022-10-24T14:59:46.550Z,7.72
2022-10-24T15:02:22.772Z,8.43
2022-10-24T15:04:56.102Z,7.38
2022-10-24T15:07:30.971Z,7.43
2022-10-24T15:10:02.692Z,7.50
2022-10-24T15:12:39.812Z,7.85
2022-10-24T15:15:23.455Z,7.60
2022-10-24T15:17:54.957Z,7.95
2022-10-24T15:20:27.515Z,8.15
2022-10-24T15:22:59.002Z,8.40
2022-10-24T15:25:30.835Z,8.45
2022-10-24T15:28:00.992Z,8.68
2022-10-24T15:30:34.521Z,8.52
2022-10-24T15:33:05.849Z,8.77
2022-10-24T15:35:42.675Z,8.57
2022-10-24T15:38:15.437Z,9.10
2022-10-24T15:40:50.494Z,8.43
2022-10-24T15:43:20.982Z,8.00
2022-10-24T15:45:52.011Z,8.48
2022-10-24T15:48:21.985Z,8.40
2022-10-24T15:50:50.161Z,8.40
2022-10-24T15:53:21.162Z,8.10
2022-10-24T15:55:49.677Z,8.15
2022-10-24T15:58:25.357Z,9.00
2022-10-24T16:00:53.722Z,8.47
2022-10-24T16:03:28.192Z,8.32
2022-10-24T16:05:58.195Z,8.50
2022-10-24T16:08:27.428Z,8.07
2022-10-24T16:10:55.854Z,8.18
2022-10-24T16:13:25.024Z,8.43
2022-10-24T16:15:55.989Z,8.33
2022-10-24T16:18:26.025Z,8.23
2022-10-24T16:20:54.835Z,8.97
2022-10-24T16:23:22.998Z,8.20
2022-10-24T16:25:51.383Z,8.95
2022-10-24T16:28:23.577Z,7.20
2022-10-24T16:30:56.847Z,8.77
2022-10-24T16:33:26.386Z,8.37
2022-10-24T16:35:54.928Z,9.50
2022-10-24T16:38:23.401Z,11.53
2022-10-24T16:40:57.126Z,8.97
2022-10-24T16:43:25.335Z,10.00
2022-10-24T16:46:05.364Z,11.10
2022-10-24T16:48:35.110Z,11.50
2022-10-24T16:51:03.233Z,10.40
2022-10-24T16:53:37.055Z,11.20
2022-10-24T16:56:05.469Z,10.73
2022-10-24T16:58:35.064Z,10.27
2022-10-24T17:01:04.984Z,10.33
2022-10-24T17:03:37.508Z,10.37
2022-10-24T17:06:09.964Z,10.00
2022-10-24T17:08:38.171Z,13.50
2022-10-24T17:11:20.206Z,15.80
2022-10-24T17:13:59.187Z,13.90
2022-10-24T17:16:27.904Z,70.20
2022-10-24T17:19:14.854Z,27.43
2022-10-24T17:21:44.347Z,26.30
2022-10-24T17:24:14.123Z,20.30
2022-10-24T17:26:43.897Z,14.67
2022-10-24T17:29:21.209Z,12.70
2022-10-24T17:31:49.552Z,20.47
2022-10-24T17:34:19.400Z,15.53
2022-10-24T17:36:56.862Z,15.10
2022-10-24T17:39:55.520Z,14.97
2022-10-24T17:42:28.231Z,13.50
2022-10-24T17:44:56.736Z,13.53
2022-10-24T17:47:25.198Z,13.43
2022-10-24T17:49:55.000Z,14.77
2022-10-24T17:52:25.058Z,41.70
2022-10-24T17:55:01.332Z,29.20
2022-10-24T17:57:29.531Z,22.07
2022-10-24T17:59:57.718Z,16.23
2022-10-24T18:02:26.046Z,14.97
2022-10-24T18:04:55.716Z,14.47
2022-10-24T18:07:25.708Z,13.27
2022-10-24T18:10:00.439Z,15.03
2022-10-24T18:12:32.061Z,19.90
2022-10-24T18:15:00.391Z,17.23
2022-10-24T18:17:28.947Z,15.53
2022-10-24T18:19:58.537Z,16.70
2022-10-24T18:22:30.598Z,18.33
2022-10-24T18:25:01.651Z,17.03
2022-10-24T18:27:32.233Z,19.20
2022-10-24T18:30:01.040Z,18.03
2022-10-24T18:32:29.909Z,17.83
2022-10-24T18:34:59.570Z,15.10
2022-10-24T18:37:27.926Z,16.63
2022-10-24T18:40:01.293Z,14.57
2022-10-24T18:42:33.053Z,12.83
2022-10-24T18:45:32.318Z,13.03
2022-10-24T18:48:04.317Z,12.50
2022-10-24T18:50:36.441Z,12.27
2022-10-24T18:53:21.404Z,11.70
2022-10-24T18:55:53.403Z,12.40
2022-10-24T18:58:22.127Z,15.43
2022-10-24T19:00:52.116Z,13.73
2022-10-24T19:03:29.437Z,12.27
2022-10-24T19:06:12.103Z,12.73
2022-10-24T19:08:40.553Z,11.43
2022-10-24T19:13:45.831Z,11.73
2022-10-24T19:16:21.011Z,10.73
2022-10-24T19:18:56.691Z,11.23
2022-10-24T19:21:28.077Z,11.67
2022-10-24T19:23:56.819Z,11.30
2022-10-24T19:26:26.097Z,11.03
2022-10-24T19:28:54.458Z,10.93
2022-10-24T19:31:23.107Z,10.77
2022-10-24T19:33:56.534Z,10.30
2022-10-24T19:36:32.103Z,10.63
2022-10-24T19:39:00.457Z,10.77
2022-10-24T19:41:29.085Z,10.83
2022-10-24T19:43:58.099Z,11.70
2022-10-24T19:46:29.266Z,11.27
2022-10-24T19:48:57.602Z,11.03
2022-10-24T19:51:26.134Z,11.90
2022-10-24T19:53:57.132Z,16.03
2022-10-24T19:56:28.676Z,10.97
2022-10-24T19:58:58.630Z,11.40
2022-10-24T20:01:30.325Z,11.20
2022-10-24T20:04:04.995Z,11.23
2022-10-24T20:06:33.350Z,12.33
2022-10-24T20:09:03.442Z,11.10
2022-10-24T20:11:35.297Z,13.17
2022-10-24T20:14:04.120Z,16.77
2022-10-24T20:16:34.602Z,11.93
2022-10-24T20:19:03.994Z,11.60
2022-10-24T20:21:36.350Z,10.93
2022-10-24T20:24:07.169Z,11.00
2022-10-24T20:26:35.951Z,11.07
2022-10-24T20:29:04.462Z,10.77
2022-10-24T20:31:35.014Z,10.70
2022-10-24T20:34:09.640Z,10.37
2022-10-24T20:36:39.008Z,10.30
2022-10-24T20:39:13.694Z,10.37
2022-10-24T20:41:44.408Z,10.30
2022-10-24T20:44:14.187Z,10.90
2022-10-24T20:46:42.330Z,10.17
2022-10-24T20:49:11.152Z,10.73
2022-10-24T20:51:45.413Z,10.93
2022-10-24T20:54:15.147Z,10.70
2022-10-24T20:56:44.009Z,10.93
2022-10-24T20:59:14.480Z,10.77
2022-10-24T21:01:43.276Z,10.60
2022-10-24T21:04:17.106Z,10.50
2022-10-24T21:06:48.978Z,10.13
2022-10-24T21:09:21.254Z,11.03
2022-10-24T21:11:50.205Z,10.73
2022-10-24T21:14:24.447Z,10.43
2022-10-24T21:16:52.767Z,10.63
2022-10-24T21:19:21.184Z,9.60
2022-10-24T21:21:49.328Z,10.53
2022-10-24T21:24:20.172Z,10.27
2022-10-24T21:26:49.142Z,11.83
2022-10-24T21:29:34.017Z,10.23
2022-10-24T21:32:07.084Z,9.97
2022-10-24T21:34:36.208Z,10.17
2022-10-24T21:37:05.128Z,10.27
2022-10-24T21:39:37.236Z,9.40
2022-10-24T21:42:06.021Z,9.27
2022-10-24T21:44:37.204Z,9.93
2022-10-24T21:47:05.368Z,9.80
2022-10-24T21:49:58.154Z,9.77
2022-10-24T21:52:26.289Z,10.33
2022-10-24T21:54:56.978Z,10.27
2022-10-24T21:57:26.036Z,10.07
2022-10-24T21:59:54.868Z,10.70
2022-10-24T22:02:23.221Z,10.97
2022-10-24T22:04:52.221Z,12.00
2022-10-24T22:07:21.256Z,11.95
2022-10-24T22:09:49.608Z,11.97
2022-10-24T22:12:19.216Z,11.83
2022-10-24T22:14:48.214Z,13.33
2022-10-24T22:17:16.421Z,12.60
2022-10-24T22:19:48.299Z,13.20
2022-10-24T22:22:17.136Z,12.20
2022-10-24T22:24:49.628Z,12.43
2022-10-24T22:27:21.546Z,12.23
2022-10-24T22:29:50.922Z,11.80
2022-10-24T22:32:19.619Z,12.07
2022-10-24T22:34:49.212Z,11.67
2022-10-24T22:37:26.193Z,11.43
2022-10-24T22:39:55.051Z,11.13
2022-10-24T22:42:25.458Z,12.07
2022-10-24T22:44:56.774Z,11.70
2022-10-24T22:47:44.206Z,11.83
2022-10-24T22:50:24.213Z,12.20
2022-10-24T22:52:55.827Z,13.77
2022-10-24T22:55:37.581Z,11.77
2022-10-24T22:58:08.865Z,12.17
2022-10-24T23:00:38.072Z,11.87
2022-10-24T23:03:18.311Z,11.57
2022-10-24T23:05:54.087Z,11.83
2022-10-24T23:08:32.682Z,10.90
2022-10-24T23:11:03.444Z,11.70
2022-10-24T23:13:37.227Z,10.83
2022-10-24T23:16:15.323Z,11.17
2022-10-24T23:18:44.048Z,11.23
2022-10-24T23:21:20.883Z,11.73
2022-10-24T23:23:51.364Z,11.60
2022-10-24T23:26:30.996Z,11.73
2022-10-24T23:29:09.111Z,12.13
2022-10-24T23:31:41.361Z,12.20
2022-10-24T23:34:10.905Z,11.60
2022-10-24T23:36:47.383Z,12.50
2022-10-24T23:39:17.340Z,13.00
2022-10-24T23:41:50.293Z,12.77
2022-10-24T23:44:20.999Z,12.67
2022-10-24T23:46:57.346Z,12.37
2022-10-24T23:49:33.066Z,13.17
2022-10-24T23:52:12.618Z,14.27
2022-10-24T23:54:41.236Z,13.27
2022-10-24T23:57:20.869Z,13.67
2022-10-24T23:59:50.498Z,12.53
